Cic Oslo — 3ENT5 — position and weather

sailwx.info

Track history (hours):
 
Tides and Currents Weather Stations Pressure Air Temp Water Temp Dewpoint Dewpoint Depression Visibility Wind Speed Wind Dir Waves Ship Positions

Cic Oslo

Last reported at 2018-Jun-15 09:46 UTC. Time now 2018-Jun-25 11:37 UTC.
Position S 32°49' E 031°55'.
Warning: this ship's position is 10 days out of date.

Length 292 m; draft 17.8 m.

Type: Cargo ship. MMSI: 371655000.

Date/timePositionNaut miles runAvg speedWind from/ knotsBaromVisibWave heightAir tempDewpointWater temp
2018-Jun-15 09:46S 32°49' E 031°55'  
2018-Jun-12 12:24S 34°49' E 018°58'4 9.5
2018-Jun-12 11:56S 34°48' E 018°53'5 9.5
2018-Jun-12 11:27S 34°47' E 018°48'5 9.6
2018-Jun-12 10:57S 34°46' E 018°42'5 9.5
2018-Jun-12 10:28S 34°45' E 018°37'7 9.6
2018-Jun-12 09:47S 34°44' E 018°29'3 9.5
2018-Jun-12 09:30S 34°43' E 018°26'5 9.6
2018-Jun-12 09:00S 34°42' E 018°20'5 9.7
2018-Jun-12 08:30S 34°41' E 018°14'5 9.7
2018-Jun-12 07:58S 34°40' E 018°08'5 9.7
2018-Jun-12 07:29S 34°39' E 018°02'5 9.7
2018-Jun-12 06:58S 34°38' E 017°56'5 9.8
2018-Jun-12 06:30S 34°38' E 017°51'5 9.9
2018-Jun-12 05:57S 34°36' E 017°44'6 9.7
2018-Jun-12 05:20S 34°35' E 017°37'3 9.7
2018-Jun-12 05:00S 34°35' E 017°33'1310.0
2018-Jun-12 03:39S 34°32' E 017°17'210.0
2018-Jun-12 03:28S 34°31' E 017°15'810.0
2018-Jun-12 02:42S 34°30' E 017°06'2 9.9
2018-Jun-12 02:28S 34°29' E 017°03'  
Track history (hours):
 
Tides and Currents Weather Stations Pressure Air Temp Water Temp Dewpoint Dewpoint Depression Visibility Wind Speed Wind Dir Waves Ship Positions

Cic Oslo

Last reported at 2018-Jun-15 09:46 UTC. Time now 2018-Jun-25 11:37 UTC.
Position S 32°49' E 031°55'.
Warning: this ship's position is 10 days out of date.

Length 292 m; draft 17.8 m.

Type: Cargo ship. MMSI: 371655000.

Date/timePositionNaut miles runAvg speedWind from/ knotsBaromVisibWave heightAir tempDewpointWater temp
2018-Jun-15 09:46S 32°49' E 031°55'  
2018-Jun-12 12:24S 34°49' E 018°58'4 9.5
2018-Jun-12 11:56S 34°48' E 018°53'5 9.5
2018-Jun-12 11:27S 34°47' E 018°48'5 9.6
2018-Jun-12 10:57S 34°46' E 018°42'5 9.5
2018-Jun-12 10:28S 34°45' E 018°37'7 9.6
2018-Jun-12 09:47S 34°44' E 018°29'3 9.5
2018-Jun-12 09:30S 34°43' E 018°26'5 9.6
2018-Jun-12 09:00S 34°42' E 018°20'5 9.7
2018-Jun-12 08:30S 34°41' E 018°14'5 9.7
2018-Jun-12 07:58S 34°40' E 018°08'5 9.7
2018-Jun-12 07:29S 34°39' E 018°02'5 9.7
2018-Jun-12 06:58S 34°38' E 017°56'5 9.8
2018-Jun-12 06:30S 34°38' E 017°51'5 9.9
2018-Jun-12 05:57S 34°36' E 017°44'6 9.7
2018-Jun-12 05:20S 34°35' E 017°37'3 9.7
2018-Jun-12 05:00S 34°35' E 017°33'1310.0
2018-Jun-12 03:39S 34°32' E 017°17'210.0
2018-Jun-12 03:28S 34°31' E 017°15'810.0
2018-Jun-12 02:42S 34°30' E 017°06'2 9.9
2018-Jun-12 02:28S 34°29' E 017°03'  

Dump ship's entire track history